Time;durP1;ratioP1;P1;durP2;ratioP2;P2;SDS_P1;SDS_P2;PMS_P1;PMS_P2;Temp;Humidity;BMP_temperature;BMP_pressure;BME280_temperature;BME280_humidity;BME280_pressure;Samples;Min_cycle;Max_cycle;Signal;HPM_P1;HPM_P2
2021/04/13 00:01:18;;;;;;;32.08;24.32;;;;;;;9.08;68.30;100960.45;1791460;79;21140;-72
2021/04/13 00:04:12;;;;;;;32.58;24.52;;;;;;;9.02;68.38;100956.91;1796730;78;21368;-72
2021/04/13 00:06:49;;;;;;;32.05;23.87;;;;;;;9.01;68.53;100960.59;1765449;79;21696;-72
2021/04/13 00:09:27;;;;;;;33.35;24.20;;;;;;;8.99;68.67;100956.05;1796276;77;21171;-72
2021/04/13 00:12:00;;;;;;;33.78;24.90;;;;;;;9.02;68.77;100964.09;1794764;79;21638;-73
2021/04/13 00:14:34;;;;;;;32.58;23.62;;;;;;;9.05;68.77;100957.77;1795945;79;21614;-71
2021/04/13 00:17:06;;;;;;;33.67;24.30;;;;;;;9.10;68.71;100955.71;1787176;79;21378;-71
2021/04/13 00:19:46;;;;;;;;;;;;;;;9.13;68.69;100960.05;1792972;77;21191;-72
2021/04/13 00:22:14;;;;;;;27.20;22.00;;;;;;;9.13;68.60;100965.38;1795602;77;20287;-72
2021/04/13 00:24:43;;;;;;;30.52;23.12;;;;;;;9.10;68.60;100971.17;1766028;79;21459;-73
2021/04/13 00:27:14;;;;;;;33.25;23.50;;;;;;;9.09;68.61;100967.42;1741867;79;21143;-72
2021/04/13 00:29:42;;;;;;;34.70;23.67;;;;;;;9.08;68.61;100966.63;1803408;77;21336;-70
2021/04/13 00:32:11;;;;;;;33.35;24.12;;;;;;;9.08;68.64;100970.62;1790438;79;21143;-71
2021/04/13 00:34:52;;;;;;;32.25;24.25;;;;;;;9.08;68.80;100972.45;1790220;79;21107;-72
2021/04/13 00:37:28;;;;;;;33.15;24.72;;;;;;;9.06;68.95;100969.23;1790965;79;21123;-71
2021/04/13 00:40:22;;;;;;;32.95;24.60;;;;;;;9.01;69.10;100967.25;1787938;77;21195;-72
2021/04/13 00:42:52;;;;;;;34.40;23.60;;;;;;;8.98;69.35;100971.72;1770012;79;21355;-72
2021/04/13 00:45:27;;;;;;;31.82;24.10;;;;;;;8.92;69.53;100969.50;1799313;79;21143;-71
2021/04/13 00:47:56;;;;;;;36.00;25.23;;;;;;;8.88;69.62;100970.19;1806029;79;21147;-72
2021/04/13 00:50:33;;;;;;;34.48;25.45;;;;;;;8.84;69.74;100971.18;1808750;79;21610;-72
2021/04/13 00:53:04;;;;;;;35.68;26.68;;;;;;;8.81;69.89;100974.84;1801301;79;21115;-72
2021/04/13 00:55:41;;;;;;;38.23;26.42;;;;;;;8.80;70.02;100971.90;1805940;79;21183;-72
2021/04/13 00:58:18;;;;;;;36.23;27.13;;;;;;;8.77;70.14;100967.04;1774293;79;21092;-72
2021/04/13 01:01:09;;;;;;;37.03;27.42;;;;;;;8.77;70.27;100965.70;1792266;79;21698;-72
2021/04/13 01:03:54;;;;;;;35.23;25.05;;;;;;;8.74;70.35;100965.64;1793022;79;21197;-71
2021/04/13 01:06:27;;;;;;;35.03;26.35;;;;;;;8.70;70.43;100965.84;1784928;79;21211;-71
2021/04/13 01:09:21;;;;;;;36.45;25.85;;;;;;;8.65;70.50;100959.89;1807947;79;21413;-72
2021/04/13 01:12:03;;;;;;;35.35;26.07;;;;;;;8.63;70.65;100959.30;1802062;77;21210;-73
2021/04/13 01:14:31;;;;;;;;;;;;;;;8.65;70.67;100951.91;1789505;79;21047;-72
2021/04/13 01:17:07;;;;;;;33.98;25.77;;;;;;;8.68;70.66;100951.41;1786707;79;20231;-72
2021/04/13 01:20:02;;;;;;;33.83;25.23;;;;;;;8.69;70.63;100943.73;1770462;77;21405;-74
2021/04/13 01:25:36;;;;;;;34.35;24.55;;;;;;;8.79;70.68;100944.46;1799395;79;21201;-72
2021/04/13 01:28:20;;;;;;;33.95;25.40;;;;;;;8.82;70.55;100945.32;1805963;79;21060;-72
2021/04/13 01:30:55;;;;;;;30.60;24.27;;;;;;;8.85;70.45;100944.02;1792964;77;21171;-73
2021/04/13 01:33:44;;;;;;;30.82;24.10;;;;;;;8.85;70.45;100940.86;1775937;80;21476;-73
2021/04/13 01:36:28;;;;;;;35.60;24.50;;;;;;;8.81;70.54;100945.02;1786507;79;21267;-72
2021/04/13 01:39:16;;;;;;;32.20;24.23;;;;;;;8.80;70.66;100950.06;1810467;79;21119;-72
2021/04/13 01:44:27;;;;;;;29.67;24.52;;;;;;;8.80;70.77;100947.92;1795722;79;21539;-71
2021/04/13 01:46:58;;;;;;;33.78;23.83;;;;;;;8.77;70.81;100946.53;1799949;78;21072;-72
2021/04/13 01:49:28;;;;;;;31.27;23.42;;;;;;;8.75;70.84;100941.15;1785509;79;21366;-72
2021/04/13 01:51:58;;;;;;;29.90;23.65;;;;;;;8.72;70.94;100945.61;1787401;77;21195;-72
2021/04/13 01:54:26;;;;;;;29.40;23.20;;;;;;;8.68;71.03;100940.75;1789788;79;21179;-73
2021/04/13 01:57:15;;;;;;;33.60;24.98;;;;;;;8.63;71.09;100947.84;1792025;79;21178;-73
2021/04/13 01:59:53;;;;;;;30.95;23.90;;;;;;;8.59;71.20;100946.70;1779937;79;21158;-73
2021/04/13 02:02:28;;;;;;;33.20;23.05;;;;;;;8.60;71.34;100950.97;1793661;77;22260;-73
2021/04/13 02:05:03;;;;;;;30.72;24.10;;;;;;;8.59;71.41;100936.05;1791793;79;21131;-73
2021/04/13 02:10:28;;;;;;;33.23;23.90;;;;;;;8.57;71.54;100935.47;1797516;79;21123;-73
2021/04/13 02:13:16;;;;;;;31.12;23.73;;;;;;;8.57;71.67;100940.79;1799454;79;21219;-72
2021/04/13 02:16:00;;;;;;;33.02;23.73;;;;;;;8.57;71.73;100927.48;1797551;79;21353;-73
2021/04/13 02:18:41;;;;;;;32.10;23.77;;;;;;;8.57;71.76;100923.48;1770978;79;21590;-71
2021/04/13 02:21:18;;;;;;;30.17;23.07;;;;;;;8.57;71.85;100926.95;1786297;79;21120;-72
2021/04/13 02:23:52;;;;;;;30.37;22.17;;;;;;;8.55;71.91;100926.89;1791981;77;21138;-71
2021/04/13 02:26:21;;;;;;;30.43;23.18;;;;;;;8.54;71.99;100927.95;1790855;79;21187;-71
2021/04/13 02:28:51;;;;;;;36.00;24.05;;;;;;;8.51;72.04;100929.22;1766896;79;21279;-71
2021/04/13 02:31:47;;;;;;;31.30;23.73;;;;;;;8.51;72.08;100932.41;1795186;78;21238;-73
2021/04/13 02:34:20;;;;;;;31.02;23.65;;;;;;;8.51;72.08;100925.75;1799098;77;21063;-71
2021/04/13 02:36:56;;;;;;;30.75;23.05;;;;;;;8.50;72.09;100922.80;1796560;79;21909;-72
2021/04/13 02:39:30;;;;;;;34.25;24.98;;;;;;;8.48;72.08;100929.68;1795126;79;21206;-72
2021/04/13 02:42:14;;;;;;;32.73;24.25;;;;;;;8.49;72.07;100928.66;1803036;79;22294;-72
2021/04/13 02:44:42;;;;;;;32.95;24.57;;;;;;;8.51;72.06;100917.23;1801100;77;21088;-72
2021/04/13 02:47:13;;;;;;;34.83;24.63;;;;;;;8.52;72.13;100920.70;1789668;79;21199;-72
2021/04/13 02:49:41;;;;;;;36.75;24.70;;;;;;;8.54;72.18;100926.09;1784871;79;21179;-72
2021/04/13 02:52:18;;;;;;;33.08;25.48;;;;;;;8.50;72.22;100920.95;1787098;79;21528;-71
2021/04/13 02:54:53;;;;;;;35.52;26.33;;;;;;;8.52;72.23;100916.70;1798861;79;21399;-72
2021/04/13 02:57:29;;;;;;;36.95;25.85;;;;;;;8.53;72.27;100911.17;1786457;79;21214;-71
2021/04/13 03:00:02;;;;;;;37.13;26.07;;;;;;;8.53;72.32;100917.83;1787487;79;21238;-72
2021/04/13 03:02:36;;;;;;;;;;;;;;;8.53;72.37;100920.48;1801680;79;21617;-71
2021/04/13 03:05:07;;;;;;;33.70;26.07;;;;;;;8.50;72.38;100926.27;1749436;77;20262;-73
2021/04/13 03:07:38;;;;;;;32.90;25.52;;;;;;;8.50;72.50;100924.14;1787344;79;21351;-72
2021/04/13 03:10:14;;;;;;;36.63;26.25;;;;;;;8.51;72.59;100919.09;1806329;79;21119;-72
2021/04/13 03:12:50;;;;;;;36.75;27.00;;;;;;;8.49;72.67;100922.50;1800222;79;21076;-71
2021/04/13 03:15:24;;;;;;;35.43;26.25;;;;;;;8.49;72.76;100924.66;1793594;79;21603;-73
2021/04/13 03:17:55;;;;;;;37.63;27.40;;;;;;;8.51;72.78;100919.89;1803070;79;21112;-70
2021/04/13 03:20:27;;;;;;;34.00;25.45;;;;;;;8.51;72.76;100917.77;1792792;79;21333;-73
2021/04/13 03:22:57;;;;;;;36.40;26.35;;;;;;;8.49;72.79;100916.68;1788938;79;23887;-71
2021/04/13 03:25:30;;;;;;;37.75;27.35;;;;;;;8.45;72.84;100919.50;1801429;77;21119;-73
2021/04/13 03:28:02;;;;;;;38.55;29.30;;;;;;;8.45;72.90;100923.48;1796780;79;21646;-72
2021/04/13 03:30:34;;;;;;;40.65;30.05;;;;;;;8.45;72.90;100914.98;1761548;79;21670;-70
2021/04/13 03:33:22;;;;;;;36.63;27.87;;;;;;;8.49;72.93;100928.66;1810137;79;21437;-72
2021/04/13 03:35:50;;;;;;;42.00;29.65;;;;;;;8.51;72.92;100917.77;1796403;77;21140;-72
2021/04/13 03:38:20;;;;;;;41.15;29.55;;;;;;;8.53;72.91;100918.34;1789822;79;21151;-72
2021/04/13 03:40:50;;;;;;;39.05;29.02;;;;;;;8.57;72.83;100924.81;1802381;79;21103;-72
2021/04/13 03:43:25;;;;;;;41.58;28.38;;;;;;;8.59;72.83;100928.06;1785404;79;21639;-73
2021/04/13 03:45:56;;;;;;;38.25;27.93;;;;;;;8.57;72.82;100926.15;1794132;77;21493;-71
2021/04/13 03:48:27;;;;;;;35.43;28.47;;;;;;;8.54;72.88;100928.75;1786253;79;21056;-72
2021/04/13 03:51:03;;;;;;;39.40;29.72;;;;;;;8.55;72.92;100925.56;1786584;79;21183;-71
2021/04/13 03:53:42;;;;;;;40.63;28.27;;;;;;;8.56;72.95;100930.67;1797529;79;21063;-73
2021/04/13 03:56:16;;;;;;;37.30;28.40;;;;;;;8.54;72.96;100932.74;1794090;79;21174;-71
2021/04/13 03:58:58;;;;;;;39.83;28.05;;;;;;;8.51;73.02;100935.88;1794006;79;21352;-71
2021/04/13 04:01:32;;;;;;;42.40;29.35;;;;;;;8.52;73.11;100936.15;1796513;79;28239;-71
2021/04/13 04:04:04;;;;;;;39.23;28.40;;;;;;;8.54;73.13;100928.75;1773464;79;21163;-72
2021/04/13 04:07:00;;;;;;;38.40;28.57;;;;;;;8.56;73.20;100933.86;1794440;77;21123;-73
2021/04/13 04:09:34;;;;;;;37.55;28.60;;;;;;;8.52;73.30;100940.14;1811102;79;21131;-72
2021/04/13 04:12:23;;;;;;;38.90;28.60;;;;;;;8.50;73.46;100936.12;1804574;79;21201;-72
2021/04/13 04:15:07;;;;;;;38.00;27.98;;;;;;;8.51;73.53;100936.39;1810223;77;21206;-72
2021/04/13 04:17:37;;;;;;;41.80;27.50;;;;;;;8.50;73.61;100940.11;1797678;77;21067;-72
2021/04/13 04:20:09;;;;;;;35.90;27.67;;;;;;;8.50;73.69;100942.25;1796277;79;21124;-72
2021/04/13 04:22:50;;;;;;;37.98;27.90;;;;;;;8.49;73.80;100942.47;1785171;80;21595;-73
2021/04/13 04:25:36;;;;;;;38.17;27.95;;;;;;;8.51;73.88;100941.20;1787993;77;27572;-71
2021/04/13 04:28:27;;;;;;;38.25;28.23;;;;;;;8.55;73.93;100951.66;1797904;77;21179;-71
2021/04/13 04:31:20;;;;;;;39.27;25.95;;;;;;;8.57;73.96;100948.25;1795900;77;21088;-72
2021/04/13 04:33:48;;;;;;;36.42;25.77;;;;;;;8.60;73.95;100941.13;1797530;77;21198;-73
2021/04/13 04:36:34;;;;;;;34.05;25.88;;;;;;;8.63;73.96;100943.86;1800786;77;21533;-72
2021/04/13 04:39:24;;;;;;;33.30;26.45;;;;;;;8.64;73.97;100946.27;1790046;77;21205;-71
2021/04/13 04:41:55;;;;;;;36.60;27.37;;;;;;;8.65;73.87;100937.25;1790551;79;21131;-71
2021/04/13 04:44:28;;;;;;;38.15;27.02;;;;;;;8.71;73.77;100930.69;1802204;79;21095;-72
2021/04/13 04:47:00;;;;;;;37.80;27.22;;;;;;;8.75;73.68;100931.83;1797873;77;21176;-73
2021/04/13 04:49:40;;;;;;;39.63;28.40;;;;;;;8.78;73.55;100929.50;1797370;77;23277;-71
2021/04/13 04:52:09;;;;;;;37.20;26.40;;;;;;;8.81;73.38;100933.03;1795137;79;22094;-71
2021/04/13 04:54:37;;;;;;;39.25;27.93;;;;;;;8.86;73.28;100933.14;1755977;79;21631;-73
2021/04/13 04:57:07;;;;;;;40.38;28.60;;;;;;;8.87;73.30;100940.61;1790941;77;21590;-71
2021/04/13 04:59:35;;;;;;;34.92;26.37;;;;;;;8.89;73.25;100931.87;1802766;79;21044;-72
2021/04/13 05:02:04;;;;;;;38.63;27.35;;;;;;;8.93;73.17;100931.67;1809687;79;21155;-71
2021/04/13 05:04:33;;;;;;;38.63;29.05;;;;;;;8.92;73.13;100928.73;1796876;79;21356;-71
2021/04/13 05:07:01;;;;;;;42.93;28.45;;;;;;;8.93;73.10;100930.34;1794704;79;21674;-72
2021/04/13 05:09:29;;;;;;;40.55;29.57;;;;;;;8.95;73.07;100927.42;1793643;77;21060;-71
2021/04/13 05:11:57;;;;;;;37.80;26.85;;;;;;;8.95;72.95;100928.27;1804594;79;21203;-71
2021/04/13 05:14:25;;;;;;;42.08;28.55;;;;;;;8.97;72.91;100931.48;1795040;79;21048;-71
2021/04/13 05:16:54;;;;;;;39.10;25.40;;;;;;;8.99;72.86;100929.93;1794301;77;21190;-72
2021/04/13 05:19:22;;;;;;;31.42;25.60;;;;;;;9.01;72.83;100927.29;1786382;79;21154;-71
2021/04/13 05:21:50;;;;;;;36.23;26.07;;;;;;;9.03;72.80;100932.40;1785129;79;21574;-71
2021/04/13 05:24:18;;;;;;;34.03;26.57;;;;;;;9.06;72.84;100930.59;1788811;79;21301;-72
2021/04/13 05:26:46;;;;;;;36.95;28.35;;;;;;;9.03;72.89;100934.53;1794133;77;21179;-72
2021/04/13 05:29:15;;;;;;;41.58;27.65;;;;;;;9.02;72.98;100935.59;1796831;77;21138;-71
2021/04/13 05:31:43;;;;;;;41.65;27.37;;;;;;;9.04;73.07;100933.48;1813760;79;21194;-72
2021/04/13 05:34:13;;;;;;;37.53;28.15;;;;;;;9.08;73.18;100931.14;1785639;79;21115;-72
2021/04/13 05:36:42;;;;;;;39.23;28.70;;;;;;;9.12;73.24;100925.65;1786730;79;21626;-73
2021/04/13 05:39:11;;;;;;;35.68;27.17;;;;;;;9.12;73.29;100919.79;1799530;79;21163;-72
2021/04/13 05:41:39;;;;;;;39.38;28.92;;;;;;;9.14;73.34;100916.88;1800824;79;21412;-71
2021/04/13 05:44:07;;;;;;;38.55;28.60;;;;;;;9.16;73.36;100913.46;1794931;79;21213;-72
2021/04/13 05:46:35;;;;;;;35.48;27.80;;;;;;;9.22;73.42;100913.84;1794892;77;21166;-71
2021/04/13 05:49:04;;;;;;;39.30;29.45;;;;;;;9.30;73.41;100911.30;1792298;79;21555;-71
2021/04/13 05:51:33;;;;;;;37.75;29.50;;;;;;;9.40;73.38;100912.81;1807484;77;21183;-72
2021/04/13 05:54:02;;;;;;;39.18;29.35;;;;;;;9.51;73.33;100914.63;1793633;79;21965;-72
2021/04/13 05:56:37;;;;;;;40.83;29.32;;;;;;;9.59;73.16;100915.55;1785509;79;21234;-73
2021/04/13 05:59:07;;;;;;;35.23;25.37;;;;;;;9.62;73.00;100912.40;1799619;77;21191;-71
2021/04/13 06:01:35;;;;;;;37.38;27.73;;;;;;;9.61;72.94;100916.13;1794147;79;21116;-72
2021/04/13 06:04:05;;;;;;;37.28;28.38;;;;;;;9.57;72.87;100911.50;1797107;79;21186;-71
2021/04/13 06:06:33;;;;;;;40.50;29.45;;;;;;;9.53;72.94;100915.70;1769641;79;21371;-74
2021/04/13 06:09:01;;;;;;;42.93;29.48;;;;;;;9.51;73.00;100918.63;1798465;79;21600;-72
2021/04/13 06:11:31;;;;;;;41.37;29.82;;;;;;;9.54;73.10;100919.48;1796279;77;21734;-72
2021/04/13 06:14:02;;;;;;;36.48;27.17;;;;;;;9.59;73.13;100922.22;1786192;79;21174;-72
2021/04/13 06:16:35;;;;;;;40.33;28.42;;;;;;;9.64;73.11;100922.84;1792751;79;21119;-72
2021/04/13 06:19:01;;;;;;;43.83;29.52;;;;;;;9.60;73.10;100919.82;1798895;79;21241;-73
2021/04/13 06:21:30;;;;;;;42.53;30.05;;;;;;;9.63;73.16;100924.67;1791420;79;21484;-71
2021/04/13 06:23:58;;;;;;;42.30;29.37;;;;;;;9.73;73.09;100916.56;1796305;77;21175;-73
2021/04/13 06:26:27;;;;;;;39.73;28.90;;;;;;;9.80;72.90;100925.20;1800824;77;21852;-71
2021/04/13 06:28:57;;;;;;;39.05;29.00;;;;;;;9.83;72.78;100916.72;1790499;79;21314;-73
2021/04/13 06:31:28;;;;;;;42.93;29.40;;;;;;;9.94;72.71;100928.38;1806784;79;21672;-72
2021/04/13 06:33:57;;;;;;;37.13;28.23;;;;;;;10.01;72.59;100920.48;1787913;79;21174;-71
2021/04/13 06:36:26;;;;;;;35.88;27.67;;;;;;;10.09;72.39;100921.39;1786785;79;21115;-72
2021/04/13 06:38:55;;;;;;;39.35;27.62;;;;;;;10.11;72.24;100921.16;1789887;79;21174;-74
2021/04/13 06:42:07;;;;;;;40.23;29.02;;;;;;;10.07;72.19;100918.71;1766806;79;21684;-73
2021/04/13 06:45:00;;;;;;;41.02;28.02;;;;;;;10.08;72.20;100919.78;1783154;79;21669;-72
2021/04/13 06:47:43;;;;;;;41.85;29.05;;;;;;;10.15;72.16;100917.48;1792878;79;22141;-73
2021/04/13 06:50:49;;;;;;;34.43;25.50;;;;;;;10.25;72.18;100919.75;1792202;79;21500;-73
2021/04/13 06:53:58;;;;;;;36.88;27.17;;;;;;;10.34;72.13;100917.52;1794519;79;21387;-72
2021/04/13 06:56:50;;;;;;;35.15;26.00;;;;;;;10.38;71.95;100914.63;1792131;79;21179;-74
2021/04/13 06:59:48;;;;;;;37.10;26.82;;;;;;;10.37;71.85;100922.36;1792779;77;21253;-73
2021/04/13 07:02:40;;;;;;;39.48;29.07;;;;;;;10.41;71.74;100915.47;1796272;79;21157;-73
2021/04/13 07:05:22;;;;;;;38.10;27.05;;;;;;;10.49;71.62;100913.69;1799336;77;21218;-73
2021/04/13 07:08:22;;;;;;;37.93;28.45;;;;;;;10.56;71.42;100911.67;1798694;79;21218;-73
2021/04/13 07:10:54;;;;;;;36.95;27.77;;;;;;;10.61;71.39;100911.45;1795936;77;21252;-71
2021/04/13 07:14:05;;;;;;;39.90;28.77;;;;;;;10.73;71.20;100924.16;1802515;79;22270;-71
2021/04/13 07:16:41;;;;;;;40.47;29.23;;;;;;;10.78;70.98;100921.53;1801424;79;21840;-71
2021/04/13 07:19:14;;;;;;;38.63;28.07;;;;;;;10.91;70.89;100919.82;1786426;78;21292;-73
2021/04/13 07:22:00;;;;;;;41.43;27.63;;;;;;;11.05;70.66;100921.57;1798169;77;21792;-72
2021/04/13 07:24:53;;;;;;;42.20;29.07;;;;;;;11.19;70.38;100926.02;1798893;79;21806;-73
2021/04/13 07:27:41;;;;;;;;;;;;;;;11.27;70.06;100921.54;1782051;79;21419;-73
2021/04/13 07:30:22;;;;;;;39.20;29.10;;;;;;;11.34;69.77;100914.65;1789412;79;20269;-72
2021/04/13 07:32:56;;;;;;;41.73;29.82;;;;;;;11.43;69.52;100915.81;1795325;79;21372;-72
2021/04/13 07:35:30;;;;;;;42.93;30.47;;;;;;;11.51;69.23;100916.14;1793289;77;21146;-72
2021/04/13 07:38:04;;;;;;;41.43;29.63;;;;;;;11.58;69.02;100916.47;1786951;79;21419;-74
2021/04/13 07:40:35;;;;;;;40.27;29.40;;;;;;;11.62;68.79;100922.94;1789240;77;21788;-74
2021/04/13 07:43:20;;;;;;;44.27;29.23;;;;;;;11.65;68.69;100927.79;1791001;79;21443;-73
2021/04/13 07:46:03;;;;;;;40.97;30.43;;;;;;;11.69;68.56;100931.02;1792508;79;21155;-72
2021/04/13 07:49:06;;;;;;;41.03;29.33;;;;;;;11.74;68.35;100925.70;1787637;79;21367;-72
2021/04/13 07:52:12;;;;;;;42.73;30.70;;;;;;;11.71;68.19;100926.74;1790149;77;21427;-71
2021/04/13 07:55:03;;;;;;;45.20;30.20;;;;;;;11.68;68.15;100926.75;1797460;79;21896;-74
2021/04/13 07:57:51;;;;;;;39.03;27.87;;;;;;;11.76;68.15;100927.33;1770094;77;21330;-73
2021/04/13 08:00:30;;;;;;;44.73;30.70;;;;;;;11.78;68.14;100921.17;1797112;79;21587;-72
2021/04/13 08:03:34;;;;;;;44.07;32.17;;;;;;;11.70;68.16;100929.95;1798579;79;21415;-73
2021/04/13 08:06:07;;;;;;;42.23;30.90;;;;;;;11.77;68.18;100923.59;1792763;79;21490;-72
2021/04/13 08:08:41;;;;;;;45.83;30.93;;;;;;;11.89;67.91;100918.36;1774296;80;21548;-72
2021/04/13 08:11:19;;;;;;;42.77;29.50;;;;;;;12.00;67.66;100919.77;1777687;78;21422;-73
2021/04/13 08:13:52;;;;;;;41.95;30.02;;;;;;;12.09;67.43;100920.91;1774085;78;21430;-73
2021/04/13 08:16:35;;;;;;;38.83;28.43;;;;;;;12.15;67.14;100911.84;1789530;78;21140;-72
2021/04/13 08:19:28;;;;;;;42.43;29.47;;;;;;;12.22;66.92;100916.98;1784387;80;21367;-72
2021/04/13 08:22:15;;;;;;;;;;;;;;;12.27;66.77;100916.99;1791298;79;21460;-73
2021/04/13 08:24:59;;;;;;;45.07;31.70;;;;;;;12.23;66.63;100914.56;1803751;79;20318;-72
2021/04/13 08:27:45;;;;;;;45.60;29.67;;;;;;;12.16;66.85;100911.58;1805867;79;21370;-71
2021/04/13 08:30:47;;;;;;;42.53;28.80;;;;;;;12.23;66.81;100911.34;1798886;79;21268;-72
2021/04/13 08:33:34;;;;;;;39.58;28.23;;;;;;;12.33;66.63;100908.72;1791182;79;21323;-73
2021/04/13 08:36:26;;;;;;;37.13;26.67;;;;;;;12.46;66.41;100910.13;1804486;79;21675;-71
2021/04/13 08:39:19;;;;;;;39.48;27.95;;;;;;;12.57;66.10;100900.26;1784162;79;21804;-71
2021/04/13 08:42:09;;;;;;;39.10;26.35;;;;;;;12.65;65.68;100901.91;1748728;79;21215;-73
2021/04/13 08:45:11;;;;;;;37.60;27.77;;;;;;;12.73;65.26;100901.13;1794868;79;21178;-73
2021/04/13 08:47:49;;;;;;;35.70;26.07;;;;;;;12.74;65.15;100906.78;1783932;79;21325;-72
2021/04/13 08:50:48;;;;;;;37.10;26.67;;;;;;;12.84;64.96;100898.77;1792422;79;21341;-72
2021/04/13 08:53:35;;;;;;;36.33;25.90;;;;;;;12.94;64.75;100904.70;1796363;79;21371;-71
2021/04/13 08:56:28;;;;;;;37.13;26.40;;;;;;;13.04;64.46;100903.39;1807510;79;22773;-73
2021/04/13 08:59:03;;;;;;;35.20;26.33;;;;;;;13.10;64.17;100900.99;1784260;79;21460;-73
2021/04/13 09:01:39;;;;;;;34.23;26.43;;;;;;;13.11;63.90;100905.28;1772341;79;21332;-71
2021/04/13 09:04:15;;;;;;;32.40;24.50;;;;;;;13.10;63.59;100899.11;1792453;77;21397;-72
2021/04/13 09:06:56;;;;;;;30.87;24.50;;;;;;;13.11;63.46;100894.55;1780695;79;21419;-73
2021/04/13 09:09:42;;;;;;;32.77;24.47;;;;;;;13.07;63.31;100898.30;1793132;79;22898;-72
2021/04/13 09:12:20;;;;;;;32.87;25.70;;;;;;;12.98;63.55;100892.38;1795179;79;21421;-72
2021/04/13 09:15:29;;;;;;;32.30;25.10;;;;;;;13.06;63.69;100895.36;1764222;79;22886;-72
2021/04/13 09:18:14;;;;;;;31.67;24.00;;;;;;;13.15;63.04;100888.37;1756073;81;21172;-73
2021/04/13 09:20:50;;;;;;;29.97;22.77;;;;;;;13.15;63.04;100888.37;1733342;81;22158;-72
2021/04/13 09:23:35;;;;;;;28.97;22.13;;;;;;;13.21;63.20;100881.16;1733810;81;21447;-72
2021/04/13 09:26:20;;;;;;;32.17;24.27;;;;;;;13.24;62.94;100873.95;1757895;81;22033;-75
2021/04/13 09:28:55;;;;;;;32.57;24.23;;;;;;;13.33;62.32;100870.20;1768586;81;21491;-74
2021/04/13 09:31:45;;;;;;;30.97;23.30;;;;;;;13.33;62.32;100870.20;1764630;81;22063;-74
2021/04/13 09:34:27;;;;;;;29.30;22.95;;;;;;;13.40;62.70;100876.65;1765687;81;21470;-73
2021/04/13 09:37:15;;;;;;;30.93;22.47;;;;;;;13.48;62.49;100870.73;1762116;81;21665;-75
2021/04/13 09:40:14;;;;;;;28.50;21.70;;;;;;;13.49;62.12;100870.99;1764075;81;21547;-75
2021/04/13 09:43:07;;;;;;;29.73;22.77;;;;;;;13.49;62.12;100870.99;1765385;79;21537;-75
2021/04/13 09:46:04;;;;;;;28.17;22.97;;;;;;;13.46;62.00;100865.66;1760055;81;21902;-76
2021/04/13 09:49:23;;;;;;;29.10;23.00;;;;;;;13.51;62.06;100862.95;1753547;79;20937;-72
2021/04/13 09:52:10;;;;;;;33.57;23.40;;;;;;;13.47;61.99;100868.59;1752089;81;21089;-73
2021/04/13 09:54:42;;;;;;;30.03;22.67;;;;;;;13.47;62.00;100867.80;1742670;81;21554;-73
2021/04/13 09:57:33;;;;;;;29.10;21.05;;;;;;;13.47;62.05;100866.45;1735918;81;21471;-73
2021/04/13 10:00:28;;;;;;;26.12;21.15;;;;;;;13.43;62.00;100870.21;1799371;77;21112;-71
2021/04/13 10:03:14;;;;;;;27.80;20.97;;;;;;;13.36;61.82;100870.48;1794068;77;22078;-72
2021/04/13 10:05:47;;;;;;;28.13;21.03;;;;;;;13.27;61.98;100860.55;1800857;78;21889;-72
2021/04/13 10:08:21;;;;;;;;;;;;;;;13.27;62.17;100860.55;1825526;78;21460;-72
2021/04/13 10:11:11;;;;;;;28.00;21.20;;;;;;;13.24;62.34;100860.53;1811925;78;20298;-72
2021/04/13 10:14:20;;;;;;;26.83;21.10;;;;;;;13.23;62.25;100857.56;1784589;78;21529;-72
2021/04/13 10:17:15;;;;;;;30.93;22.13;;;;;;;13.10;62.58;100865.59;1772200;80;21277;-72
2021/04/13 10:20:21;;;;;;;32.87;23.80;;;;;;;12.89;63.05;100862.58;1766847;79;23449;-72
2021/04/13 10:23:17;;;;;;;30.97;22.93;;;;;;;12.71;63.61;100864.42;1751682;80;21099;-71
2021/04/13 10:25:51;;;;;;;29.87;23.07;;;;;;;12.63;64.05;100862.50;1770759;80;21350;-73
2021/04/13 10:28:54;;;;;;;28.67;21.77;;;;;;;12.65;64.23;100867.08;1751564;80;21527;-72
2021/04/13 10:32:11;;;;;;;26.03;19.80;;;;;;;12.72;64.23;100854.77;1763669;80;21342;-72
2021/04/13 10:35:18;;;;;;;23.70;19.83;;;;;;;12.85;64.03;100857.48;1737918;80;21335;-72
2021/04/13 10:38:01;;;;;;;24.93;20.23;;;;;;;12.97;63.66;100862.62;1758881;81;21415;-74
2021/04/13 10:40:54;;;;;;;22.83;18.13;;;;;;;13.06;63.44;100856.47;1763759;81;21381;-71
2021/04/13 10:43:46;;;;;;;25.10;18.67;;;;;;;13.11;63.04;100853.78;1754025;79;21523;-72
2021/04/13 10:46:52;;;;;;;25.80;19.17;;;;;;;13.15;62.71;100858.07;1760029;81;21376;-73
2021/04/13 10:50:16;;;;;;;24.72;18.80;;;;;;;13.17;62.39;100850.58;1764460;81;21494;-73
2021/04/13 10:53:23;;;;;;;24.73;19.73;;;;;;;13.14;62.44;100855.93;1745142;81;21171;-73
2021/04/13 10:56:30;;;;;;;20.72;15.75;;;;;;;13.07;62.22;100851.37;1755189;81;21382;-72
2021/04/13 10:59:54;;;;;;;22.13;17.97;;;;;;;13.04;62.46;100852.44;1792994;79;21152;-72
2021/04/13 11:03:00;;;;;;;20.53;15.90;;;;;;;13.01;62.43;100844.38;1811510;79;21368;-72
2021/04/13 11:05:59;;;;;;;23.50;18.00;;;;;;;13.08;62.38;100846.27;1775349;79;21535;-72
2021/04/13 11:08:58;;;;;;;25.23;18.07;;;;;;;13.05;62.15;100844.11;1784352;79;21398;-73
2021/04/13 11:12:05;;;;;;;24.67;19.10;;;;;;;13.01;62.17;100844.92;1797575;79;21404;-72
2021/04/13 11:15:04;;;;;;;23.33;18.47;;;;;;;12.87;62.33;100850.00;1786581;79;21483;-73
2021/04/13 11:17:52;;;;;;;24.50;18.53;;;;;;;12.82;62.59;100849.44;1794468;79;21353;-72
2021/04/13 11:20:41;;;;;;;22.27;17.70;;;;;;;12.81;62.60;100851.05;1757380;80;21435;-72
2021/04/13 11:23:52;;;;;;;26.57;20.23;;;;;;;12.74;62.62;100843.80;1751442;81;21324;-73
2021/04/13 11:26:57;;;;;;;24.73;19.90;;;;;;;12.65;62.70;100850.20;1773883;79;21560;-72
2021/04/13 11:29:42;;;;;;;26.67;20.67;;;;;;;12.62;62.90;100846.70;1774376;80;21902;-73
2021/04/13 11:32:30;;;;;;;27.10;20.23;;;;;;;12.59;63.07;100840.52;1774377;80;21408;-72
2021/04/13 11:35:06;;;;;;;27.90;20.87;;;;;;;12.57;63.18;100846.16;1769753;79;21753;-74
2021/04/13 11:38:07;;;;;;;26.50;20.43;;;;;;;12.54;63.29;100843.20;1776155;80;21293;-72
2021/04/13 11:41:02;;;;;;;28.10;19.63;;;;;;;12.49;63.41;100849.88;1719450;80;22410;-72
2021/04/13 11:43:40;;;;;;;30.07;21.33;;;;;;;12.41;63.62;100849.31;1781227;80;21284;-72
2021/04/13 11:46:14;;;;;;;30.10;22.63;;;;;;;12.33;63.83;100849.80;1775477;79;21825;-72
2021/04/13 11:48:53;;;;;;;30.17;23.53;;;;;;;12.27;64.00;100855.39;1779943;80;21393;-73
2021/04/13 11:51:38;;;;;;;32.80;24.87;;;;;;;12.22;64.20;100849.48;1777615;79;21380;-73
2021/04/13 11:57:27;;;;;;;29.40;24.30;;;;;;;12.22;64.70;100844.13;1806702;78;22783;-73
2021/04/13 12:00:19;;;;;;;32.47;24.77;;;;;;;12.14;64.95;100845.45;1762985;80;21161;-73
2021/04/13 12:02:50;;;;;;;33.37;24.87;;;;;;;12.14;65.09;100843.27;1783821;80;22312;-72
2021/04/13 12:05:35;;;;;;;31.00;24.70;;;;;;;12.10;65.27;100841.66;1770137;80;21355;-72
2021/04/13 12:08:05;;;;;;;32.13;24.50;;;;;;;12.10;65.48;100844.86;1798201;79;21129;-73
2021/04/13 12:10:39;;;;;;;34.10;24.07;;;;;;;12.08;65.63;100828.27;1791608;79;21452;-72
2021/04/13 12:13:09;;;;;;;30.97;23.63;;;;;;;12.11;65.75;100834.42;1813332;79;21390;-72
2021/04/13 12:15:51;;;;;;;29.43;21.67;;;;;;;12.14;65.91;100831.22;1795391;79;22690;-73
2021/04/13 12:18:41;;;;;;;34.10;23.20;;;;;;;12.18;65.93;100826.98;1798757;79;21248;-73
2021/04/13 12:21:28;;;;;;;28.50;22.73;;;;;;;12.22;65.83;100821.91;1794816;79;21133;-73
2021/04/13 12:24:01;;;;;;;31.03;21.23;;;;;;;12.24;65.69;100821.92;1803053;79;21441;-73
2021/04/13 12:26:40;;;;;;;28.38;22.07;;;;;;;12.28;65.48;100821.67;1806410;78;21367;-73
2021/04/13 12:32:18;;;;;;;28.77;21.97;;;;;;;12.38;65.29;100811.53;1764304;79;22775;-73